Cuneyt Solakoglu — TCTN4 — position and weather

sailwx.info

Track history (hours):
 
Tides and Currents Weather Stations Pressure Air Temp Water Temp Dewpoint Dewpoint Depression Visibility Wind Speed Wind Dir Waves Ship Positions

Cuneyt Solakoglu

Last reported at 2014-Jul-31 01:08 UTC. Time now 2014-Jul-31 19:40 UTC.
Position N 41°57' E 007°48'.

Length 193 m; draft 6.4 m.

Type: Ship (hazmat cat A). MMSI: 271002676.

Date/timePositionNaut miles runAvg speedWind from/ knotsBaromVisibWave heightAir tempDewpointWater temp
2014-Jul-31 01:08N 41°57' E 007°48'1119.3
2014-Jul-31 00:33N 42°04' E 007°36'1919.3
2014-Jul-30 23:33N 42°15' E 007°15'1919.1
2014-Jul-30 22:33N 42°26' E 006°54'1919.1
2014-Jul-30 21:33N 42°37' E 006°33'1918.6
2014-Jul-30 20:33N 42°49' E 006°13'1917.6
2014-Jul-30 19:28N 43°05' E 005°58'4 0.3
2014-Jul-30 07:24N 43°06' E 005°54'4 5.2
2014-Jul-30 06:33N 43°04' E 005°59'1717.1
2014-Jul-30 05:34N 42°50' E 006°11'1817.6
2014-Jul-30 04:34N 42°39' E 006°30'35818.4
2014-Jul-29 09:04N 39°37' E 013°19'1019.6
2014-Jul-29 08:34N 39°32' E 013°30'1919.3
2014-Jul-29 07:34N 39°22' E 013°51'47718.0
2014-Jul-28 05:05N 36°26' E 023°13'1120.2
2014-Jul-28 04:32N 36°35' E 023°21'1919.9
2014-Jul-28 03:33N 36°52' E 023°33'2019.9
2014-Jul-28 02:33N 37°09' E 023°47'2020.0
2014-Jul-28 01:33N 37°25' E 024°00'2519.9
2014-Jul-28 00:19N 37°46' E 024°18'1519.3
2014-Jul-27 23:33N 37°55' E 024°32'6219.6
2014-Jul-27 20:22N 38°51' E 025°09'1819.8
2014-Jul-27 19:27N 39°07' E 025°21'4020.1
2014-Jul-27 17:27N 39°42' E 025°45'1920.4
2014-Jul-27 16:33N 39°58' E 025°57'161 6.7
2014-Jul-26 16:28N 40°51' E 029°16'0 0.0
2014-Jul-26 15:33N 40°51' E 029°16'0 0.0
2014-Jul-26 14:27N 40°51' E 029°16'0 0.0
2014-Jul-26 13:32N 40°51' E 029°16'0 0.0
2014-Jul-26 12:33N 40°51' E 029°16'1010.5
2014-Jul-26 11:33N 40°48' E 029°03'2019.7
2014-Jul-26 10:33N 40°49' E 028°37'13717.1
2014-Jul-26 02:31N 39°51' E 025°54'1919.6
2014-Jul-26 01:32N 39°34' E 025°43'13719.7
2014-Jul-25 18:33N 37°32' E 024°24'2219.8
2014-Jul-25 17:27N 37°14' E 024°06'81718.5
2014-Jul-23 21:17N 42°04' E 007°34'1520.7
2014-Jul-23 20:33N 42°13' E 007°18'2120.8
2014-Jul-23 19:33N 42°25' E 006°55'2120.7
2014-Jul-23 18:33N 42°37' E 006°32'2020.1
2014-Jul-23 17:33N 42°49' E 006°10'2017.7
2014-Jul-23 16:26N 43°05' E 005°55'2 0.2
2014-Jul-23 06:33N 43°06' E 005°54'10 9.7
2014-Jul-23 05:32N 42°59' E 006°02'1515.6
2014-Jul-23 04:33N 42°47' E 006°15'1313.1
2014-Jul-23 03:34N 42°39' E 006°30'1212.1
2014-Jul-23 02:33N 42°32' E 006°43'1211.8
2014-Jul-23 01:34N 42°25' E 006°56'1211.7
2014-Jul-23 00:32N 42°18' E 007°09'1312.7
2014-Jul-22 23:33N 42°11' E 007°22'1919.2
2014-Jul-22 22:33N 41°60' E 007°44'2019.4
2014-Jul-22 21:32N 41°48' E 008°05'1919.5
2014-Jul-22 20:33N 41°36' E 008°25'75618.3
2014-Jul-21 03:07N 36°26' E 023°13'1820.4
2014-Jul-21 02:15N 36°41' E 023°25'  
Track history (hours):
 
Tides and Currents Weather Stations Pressure Air Temp Water Temp Dewpoint Dewpoint Depression Visibility Wind Speed Wind Dir Waves Ship Positions

Cuneyt Solakoglu

Last reported at 2014-Jul-31 01:08 UTC. Time now 2014-Jul-31 19:40 UTC.
Position N 41°57' E 007°48'.

Length 193 m; draft 6.4 m.

Type: Ship (hazmat cat A). MMSI: 271002676.

Date/timePositionNaut miles runAvg speedWind from/ knotsBaromVisibWave heightAir tempDewpointWater temp
2014-Jul-31 01:08N 41°57' E 007°48'1119.3
2014-Jul-31 00:33N 42°04' E 007°36'1919.3
2014-Jul-30 23:33N 42°15' E 007°15'1919.1
2014-Jul-30 22:33N 42°26' E 006°54'1919.1
2014-Jul-30 21:33N 42°37' E 006°33'1918.6
2014-Jul-30 20:33N 42°49' E 006°13'1917.6
2014-Jul-30 19:28N 43°05' E 005°58'4 0.3
2014-Jul-30 07:24N 43°06' E 005°54'4 5.2
2014-Jul-30 06:33N 43°04' E 005°59'1717.1
2014-Jul-30 05:34N 42°50' E 006°11'1817.6
2014-Jul-30 04:34N 42°39' E 006°30'35818.4
2014-Jul-29 09:04N 39°37' E 013°19'1019.6
2014-Jul-29 08:34N 39°32' E 013°30'1919.3
2014-Jul-29 07:34N 39°22' E 013°51'47718.0
2014-Jul-28 05:05N 36°26' E 023°13'1120.2
2014-Jul-28 04:32N 36°35' E 023°21'1919.9
2014-Jul-28 03:33N 36°52' E 023°33'2019.9
2014-Jul-28 02:33N 37°09' E 023°47'2020.0
2014-Jul-28 01:33N 37°25' E 024°00'2519.9
2014-Jul-28 00:19N 37°46' E 024°18'1519.3
2014-Jul-27 23:33N 37°55' E 024°32'6219.6
2014-Jul-27 20:22N 38°51' E 025°09'1819.8
2014-Jul-27 19:27N 39°07' E 025°21'4020.1
2014-Jul-27 17:27N 39°42' E 025°45'1920.4
2014-Jul-27 16:33N 39°58' E 025°57'161 6.7
2014-Jul-26 16:28N 40°51' E 029°16'0 0.0
2014-Jul-26 15:33N 40°51' E 029°16'0 0.0
2014-Jul-26 14:27N 40°51' E 029°16'0 0.0
2014-Jul-26 13:32N 40°51' E 029°16'0 0.0
2014-Jul-26 12:33N 40°51' E 029°16'1010.5
2014-Jul-26 11:33N 40°48' E 029°03'2019.7
2014-Jul-26 10:33N 40°49' E 028°37'13717.1
2014-Jul-26 02:31N 39°51' E 025°54'1919.6
2014-Jul-26 01:32N 39°34' E 025°43'13719.7
2014-Jul-25 18:33N 37°32' E 024°24'2219.8
2014-Jul-25 17:27N 37°14' E 024°06'81718.5
2014-Jul-23 21:17N 42°04' E 007°34'1520.7
2014-Jul-23 20:33N 42°13' E 007°18'2120.8
2014-Jul-23 19:33N 42°25' E 006°55'2120.7
2014-Jul-23 18:33N 42°37' E 006°32'2020.1
2014-Jul-23 17:33N 42°49' E 006°10'2017.7
2014-Jul-23 16:26N 43°05' E 005°55'2 0.2
2014-Jul-23 06:33N 43°06' E 005°54'10 9.7
2014-Jul-23 05:32N 42°59' E 006°02'1515.6
2014-Jul-23 04:33N 42°47' E 006°15'1313.1
2014-Jul-23 03:34N 42°39' E 006°30'1212.1
2014-Jul-23 02:33N 42°32' E 006°43'1211.8
2014-Jul-23 01:34N 42°25' E 006°56'1211.7
2014-Jul-23 00:32N 42°18' E 007°09'1312.7
2014-Jul-22 23:33N 42°11' E 007°22'1919.2
2014-Jul-22 22:33N 41°60' E 007°44'2019.4
2014-Jul-22 21:32N 41°48' E 008°05'1919.5
2014-Jul-22 20:33N 41°36' E 008°25'75618.3
2014-Jul-21 03:07N 36°26' E 023°13'1820.4
2014-Jul-21 02:15N 36°41' E 023°25'  

Dump ship's entire track history